createdAt,value
2022-11-13T00:00:17.740Z,102501.83
2022-11-13T00:03:09.950Z,102500.78
2022-11-13T00:05:42.134Z,102498.48
2022-11-13T00:08:15.635Z,102498.66
2022-11-13T00:10:48.632Z,102498.03
2022-11-13T00:13:29.027Z,102496.10
2022-11-13T00:16:04.689Z,102494.50
2022-11-13T00:18:39.009Z,102491.58
2022-11-13T00:21:13.995Z,102488.11
2022-11-13T00:23:47.139Z,102485.73
2022-11-13T00:26:21.960Z,102484.12
2022-11-13T00:28:58.368Z,102482.67
2022-11-13T00:31:31.212Z,102483.90
2022-11-13T00:36:58.906Z,102482.29
2022-11-13T00:39:32.349Z,102479.73
2022-11-13T00:42:05.648Z,102479.27
2022-11-13T00:44:38.429Z,102481.17
2022-11-13T00:47:11.692Z,102479.08
2022-11-13T00:49:44.775Z,102476.89
2022-11-13T00:52:17.990Z,102476.82
2022-11-13T00:54:50.454Z,102479.73
2022-11-13T00:57:23.796Z,102479.89
2022-11-13T00:59:58.830Z,102475.96
2022-11-13T01:02:32.045Z,102474.55
2022-11-13T01:05:06.638Z,102474.20
2022-11-13T01:14:40.676Z,102473.04
2022-11-13T01:17:13.143Z,102469.58
2022-11-13T01:19:45.435Z,102468.70
2022-11-13T01:22:17.627Z,102472.16
2022-11-13T01:24:49.854Z,102472.16
2022-11-13T01:27:22.040Z,102470.42
2022-11-13T01:29:54.421Z,102475.66
2022-11-13T01:32:26.598Z,102473.60
2022-11-13T01:34:58.822Z,102474.16
2022-11-13T01:37:31.155Z,102473.83
2022-11-13T01:40:03.304Z,102475.55
2022-11-13T01:42:36.859Z,102475.66
2022-11-13T01:45:39.669Z,102477.83
2022-11-13T01:48:14.819Z,102477.83
2022-11-13T01:50:47.027Z,102481.55
2022-11-13T01:53:19.398Z,102482.39
2022-11-13T01:55:51.610Z,102478.31
2022-11-13T01:58:23.933Z,102479.30
2022-11-13T02:00:56.205Z,102477.20
2022-11-13T02:03:28.391Z,102473.77
2022-11-13T02:06:00.684Z,102472.80
2022-11-13T02:08:32.980Z,102472.61
2022-11-13T02:11:05.188Z,102469.83
2022-11-13T02:13:39.010Z,102469.98
2022-11-13T02:16:13.363Z,102470.02
2022-11-13T02:18:45.834Z,102472.27
2022-11-13T02:21:26.983Z,102470.80
2022-11-13T02:24:05.112Z,102473.52
2022-11-13T02:26:38.082Z,102470.48
2022-11-13T02:29:10.351Z,102475.41
2022-11-13T02:31:42.568Z,102475.77
2022-11-13T02:34:14.799Z,102476.11
2022-11-13T02:36:47.111Z,102472.40
2022-11-13T02:39:19.298Z,102470.56
2022-11-13T02:41:51.467Z,102468.20
2022-11-13T02:44:23.657Z,102468.48
2022-11-13T02:46:55.956Z,102464.20
2022-11-13T02:49:28.173Z,102464.08
2022-11-13T02:52:00.353Z,102466.76
2022-11-13T02:54:32.574Z,102465.99
2022-11-13T02:57:04.904Z,102463.60
2022-11-13T02:59:37.077Z,102465.93
2022-11-13T03:02:09.341Z,102465.64
2022-11-13T03:05:10.304Z,102461.54
2022-11-13T03:07:33.732Z,102463.20
2022-11-13T03:10:07.146Z,102460.54
2022-11-13T03:12:40.742Z,102455.58
2022-11-13T03:15:13.800Z,102451.77
2022-11-13T03:17:46.058Z,102449.75
2022-11-13T03:20:18.547Z,102448.92
2022-11-13T03:22:50.759Z,102448.73
2022-11-13T03:25:22.955Z,102451.05
2022-11-13T03:27:55.083Z,102447.77
2022-11-13T03:30:27.419Z,102448.19
2022-11-13T03:32:59.836Z,102446.66
2022-11-13T03:35:38.077Z,102445.88
2022-11-13T03:38:14.084Z,102447.98
2022-11-13T03:40:46.403Z,102450.13
2022-11-13T03:43:18.631Z,102447.23
2022-11-13T03:45:50.919Z,102441.84
2022-11-13T03:48:23.059Z,102439.21
2022-11-13T03:50:57.170Z,102437.46
2022-11-13T03:53:29.285Z,102436.02
2022-11-13T03:56:01.462Z,102433.73
2022-11-13T03:58:35.401Z,102435.53
2022-11-13T04:01:10.835Z,102430.14
2022-11-13T04:03:43.051Z,102425.20
2022-11-13T04:06:15.784Z,102425.73
2022-11-13T04:08:48.344Z,102423.52
2022-11-13T04:11:20.583Z,102424.83
2022-11-13T04:13:52.712Z,102422.44
2022-11-13T04:16:24.992Z,102417.20
2022-11-13T04:18:57.344Z,102414.44
2022-11-13T04:21:29.571Z,102419.11
2022-11-13T04:24:01.843Z,102415.88
2022-11-13T04:26:34.067Z,102415.38
2022-11-13T04:29:06.286Z,102417.65
2022-11-13T04:31:38.515Z,102413.54
2022-11-13T04:34:11.380Z,102412.20
2022-11-13T04:36:43.574Z,102412.85
2022-11-13T04:39:15.747Z,102414.10
2022-11-13T04:42:05.392Z,102410.65
2022-11-13T04:44:37.647Z,102409.40
2022-11-13T04:47:09.864Z,102408.15
2022-11-13T04:49:42.200Z,102411.70
2022-11-13T04:52:14.424Z,102416.02
2022-11-13T04:54:46.556Z,102417.16
2022-11-13T04:57:18.725Z,102421.46
2022-11-13T04:59:51.015Z,102420.64
2022-11-13T05:02:23.360Z,102427.28
2022-11-13T05:04:58.213Z,102424.92
2022-11-13T05:07:32.713Z,102427.61
2022-11-13T05:10:05.146Z,102427.16
2022-11-13T05:12:37.619Z,102426.23
2022-11-13T05:15:09.436Z,102431.58
2022-11-13T05:17:41.696Z,102433.92
2022-11-13T05:20:14.844Z,102429.32
2022-11-13T05:22:47.015Z,102427.73
2022-11-13T05:25:19.347Z,102429.50
2022-11-13T05:27:51.479Z,102428.42
2022-11-13T05:30:23.728Z,102428.30
2022-11-13T05:32:55.883Z,102430.54
2022-11-13T05:35:28.131Z,102429.55
2022-11-13T05:38:03.176Z,102432.64
2022-11-13T05:40:35.283Z,102434.53
2022-11-13T05:43:07.404Z,102436.98
2022-11-13T05:45:39.586Z,102437.08
2022-11-13T05:48:11.785Z,102438.71
2022-11-13T05:50:44.019Z,102441.71
2022-11-13T05:53:16.595Z,102446.56
2022-11-13T05:55:48.765Z,102443.30
2022-11-13T05:58:20.985Z,102444.09
2022-11-13T06:00:53.155Z,102448.61
2022-11-13T06:03:25.281Z,102452.39
2022-11-13T06:05:57.450Z,102450.83
2022-11-13T06:08:29.976Z,102450.34
2022-11-13T06:11:04.212Z,102448.56
2022-11-13T06:13:36.545Z,102448.39
2022-11-13T06:16:10.333Z,102447.55
2022-11-13T06:18:43.987Z,102449.40
2022-11-13T06:21:18.280Z,102448.84
2022-11-13T06:23:50.735Z,102448.88
2022-11-13T06:26:24.935Z,102450.58
2022-11-13T06:28:57.480Z,102447.10
2022-11-13T06:31:30.995Z,102441.63
2022-11-13T06:34:03.471Z,102430.75
2022-11-13T06:36:37.692Z,102428.94
2022-11-13T06:39:10.968Z,102423.23
2022-11-13T06:41:43.194Z,102423.77
2022-11-13T06:44:15.417Z,102429.70
2022-11-13T06:46:47.664Z,102431.28
2022-11-13T06:49:19.907Z,102433.38
2022-11-13T06:51:52.139Z,102432.55
2022-11-13T06:54:24.399Z,102438.35
2022-11-13T06:56:56.651Z,102434.95
2022-11-13T06:59:28.961Z,102431.59
2022-11-13T07:02:01.275Z,102434.71
2022-11-13T07:04:33.675Z,102436.04
2022-11-13T07:07:06.189Z,102438.93
2022-11-13T07:09:38.624Z,102440.03
2022-11-13T07:12:10.998Z,102441.55
2022-11-13T07:14:43.371Z,102441.63
2022-11-13T07:17:15.536Z,102440.59
2022-11-13T07:19:48.512Z,102445.06
2022-11-13T07:22:20.710Z,102445.25
2022-11-13T07:24:53.272Z,102447.05
2022-11-13T07:27:25.521Z,102443.16
2022-11-13T07:30:02.299Z,102440.34
2022-11-13T07:32:36.211Z,102439.75
2022-11-13T07:35:10.513Z,102442.04
2022-11-13T07:37:42.723Z,102439.14
2022-11-13T07:40:15.461Z,102437.48
2022-11-13T07:42:47.629Z,102435.15
2022-11-13T07:45:20.248Z,102434.22
2022-11-13T07:47:50.771Z,102431.41
2022-11-13T07:50:23.045Z,102431.86
2022-11-13T07:52:59.525Z,102436.02
2022-11-13T07:55:32.138Z,102435.15
2022-11-13T07:58:02.994Z,102430.70
2022-11-13T08:00:37.526Z,102431.58
2022-11-13T08:03:10.758Z,102427.76
2022-11-13T08:05:43.340Z,102425.38
2022-11-13T08:08:14.756Z,102426.88
2022-11-13T08:10:46.852Z,102425.29
2022-11-13T08:13:19.531Z,102420.23
2022-11-13T08:15:50.075Z,102416.28
2022-11-13T08:18:22.346Z,102417.73
2022-11-13T08:20:55.022Z,102413.48
2022-11-13T08:23:25.502Z,102408.48
2022-11-13T08:25:57.690Z,102411.51
2022-11-13T08:28:30.271Z,102408.02
2022-11-13T08:31:02.961Z,102406.58
2022-11-13T08:33:35.272Z,102405.45
2022-11-13T08:36:08.365Z,102408.55
2022-11-13T08:38:40.671Z,102398.66
2022-11-13T08:41:13.129Z,102396.84
2022-11-13T08:43:45.342Z,102396.92
2022-11-13T08:46:18.889Z,102392.96
2022-11-13T08:48:51.518Z,102387.44
2022-11-13T08:51:22.098Z,102388.17
2022-11-13T08:53:54.239Z,102394.43
2022-11-13T08:56:26.889Z,102394.30
2022-11-13T08:58:57.423Z,102394.27
2022-11-13T09:01:30.021Z,102391.05
2022-11-13T09:04:00.594Z,102392.36
2022-11-13T09:06:32.885Z,102383.48
2022-11-13T09:09:04.879Z,102380.81
2022-11-13T09:11:38.256Z,102382.67
2022-11-13T09:14:12.358Z,102373.89
2022-11-13T09:16:46.484Z,102368.36
2022-11-13T09:19:20.883Z,102360.77
2022-11-13T09:21:54.134Z,102359.70
2022-11-13T09:24:27.541Z,102357.46
2022-11-13T09:27:00.878Z,102358.63
2022-11-13T09:29:34.436Z,102357.44
2022-11-13T09:32:08.243Z,102351.63
2022-11-13T09:34:42.680Z,102354.61
2022-11-13T09:37:18.291Z,102350.20
2022-11-13T09:39:52.594Z,102348.86
2022-11-13T09:46:41.275Z,102341.23
2022-11-13T09:49:17.276Z,102340.64
2022-11-13T09:51:54.831Z,102334.05
2022-11-13T09:54:28.268Z,102335.27
2022-11-13T09:57:07.613Z,102335.98
2022-11-13T09:59:45.721Z,102331.85
2022-11-13T10:02:25.426Z,102330.84
2022-11-13T10:05:05.039Z,102319.31
2022-11-13T10:14:51.604Z,102308.30
2022-11-13T10:17:28.510Z,102307.80
2022-11-13T10:20:02.786Z,102301.29
2022-11-13T10:22:38.654Z,102301.09
2022-11-13T10:25:17.125Z,102301.30
2022-11-13T10:27:52.363Z,102298.34
2022-11-13T10:30:24.821Z,102294.48
2022-11-13T10:32:55.376Z,102291.98
2022-11-13T10:35:38.371Z,102285.60
2022-11-13T10:38:17.748Z,102280.27
2022-11-13T10:40:49.917Z,102281.02
2022-11-13T10:43:23.590Z,102274.41
2022-11-13T10:46:00.449Z,102279.76
2022-11-13T10:48:34.647Z,102274.93
2022-11-13T10:51:22.493Z,102266.13
2022-11-13T10:53:55.341Z,102258.76
2022-11-13T10:56:31.222Z,102254.17
2022-11-13T10:59:10.519Z,102254.20
2022-11-13T11:01:43.813Z,102251.94
2022-11-13T11:04:24.161Z,102244.23
2022-11-13T11:07:19.168Z,102242.53
2022-11-13T11:09:50.452Z,102239.30
2022-11-13T11:12:30.742Z,102236.70
2022-11-13T11:15:11.519Z,102235.73
2022-11-13T11:17:48.060Z,102228.31
2022-11-13T11:20:30.611Z,102225.69
2022-11-13T11:23:06.426Z,102229.52
2022-11-13T11:25:42.278Z,102221.91
2022-11-13T11:28:18.038Z,102221.14
2022-11-13T11:30:57.292Z,102218.61
2022-11-13T11:33:34.347Z,102217.85
2022-11-13T11:36:15.070Z,102212.25
2022-11-13T11:38:52.482Z,102206.02
2022-11-13T11:41:30.856Z,102206.35
2022-11-13T11:44:10.478Z,102199.27
2022-11-13T11:46:46.727Z,102194.15
2022-11-13T11:49:19.300Z,102191.66
2022-11-13T11:51:58.241Z,102188.61
2022-11-13T11:54:41.641Z,102180.50
2022-11-13T11:57:24.807Z,102179.85
2022-11-13T12:00:07.529Z,102178.88
2022-11-13T12:02:52.921Z,102179.91
2022-11-13T12:05:30.997Z,102177.38
2022-11-13T12:08:12.490Z,102176.83
2022-11-13T12:10:51.798Z,102176.36
2022-11-13T12:13:30.480Z,102177.25
2022-11-13T12:16:10.904Z,102171.09
2022-11-13T12:18:53.725Z,102171.99
2022-11-13T12:21:29.494Z,102171.80
2022-11-13T12:24:11.541Z,102174.30
2022-11-13T12:26:50.944Z,102170.65
2022-11-13T12:29:38.791Z,102170.00
2022-11-13T12:32:24.713Z,102169.51
2022-11-13T12:35:11.347Z,102171.31
2022-11-13T12:37:51.535Z,102168.13
2022-11-13T12:40:29.715Z,102168.33
2022-11-13T12:43:26.794Z,102165.13
2022-11-13T12:46:02.011Z,102163.75
2022-11-13T12:48:38.579Z,102164.83
2022-11-13T12:51:12.308Z,102162.75
2022-11-13T12:53:50.475Z,102163.16
2022-11-13T12:56:35.025Z,102161.86
2022-11-13T12:59:31.279Z,102163.92
2022-11-13T13:02:20.922Z,102161.38
2022-11-13T13:05:15.015Z,102158.75
2022-11-13T13:08:12.843Z,102152.42
2022-11-13T13:11:03.599Z,102149.90
2022-11-13T13:13:50.272Z,102148.55
2022-11-13T13:16:29.942Z,102150.27
2022-11-13T13:19:28.913Z,102146.46
2022-11-13T13:22:05.334Z,102147.02
2022-11-13T13:24:42.609Z,102146.73
2022-11-13T13:27:27.757Z,102148.13
2022-11-13T13:30:00.545Z,102144.89
2022-11-13T13:32:37.861Z,102148.92
2022-11-13T13:35:13.793Z,102148.70
2022-11-13T13:37:50.599Z,102149.95
2022-11-13T13:40:35.280Z,102146.23
2022-11-13T13:43:33.797Z,102142.32
2022-11-13T13:46:12.723Z,102137.11
2022-11-13T13:48:46.470Z,102135.81
2022-11-13T13:51:31.916Z,102136.02
2022-11-13T13:54:07.219Z,102132.53
2022-11-13T13:56:44.504Z,102132.57
2022-11-13T13:59:21.395Z,102135.02
2022-11-13T14:02:00.102Z,102134.00
2022-11-13T14:04:48.632Z,102135.66
2022-11-13T14:07:25.890Z,102134.86
2022-11-13T14:10:10.357Z,102132.08
2022-11-13T14:12:46.585Z,102133.35
2022-11-13T14:15:26.613Z,102130.00
2022-11-13T14:18:10.411Z,102130.38
2022-11-13T14:20:47.108Z,102126.67
2022-11-13T14:23:22.744Z,102131.05
2022-11-13T14:25:55.427Z,102133.13
2022-11-13T14:28:29.719Z,102124.84
2022-11-13T14:31:04.165Z,102131.84
2022-11-13T14:33:42.157Z,102126.69
2022-11-13T14:36:15.151Z,102129.24
2022-11-13T14:38:52.100Z,102132.20
2022-11-13T14:41:27.986Z,102131.92
2022-11-13T14:44:00.826Z,102129.77
2022-11-13T14:46:35.487Z,102127.55
2022-11-13T14:49:15.792Z,102129.64
2022-11-13T14:51:57.752Z,102132.80
2022-11-13T14:55:08.024Z,102129.41
2022-11-13T14:57:31.655Z,102128.70
2022-11-13T15:00:14.863Z,102127.31
2022-11-13T15:02:47.122Z,102127.07
2022-11-13T15:05:19.529Z,102122.99
2022-11-13T15:07:52.602Z,102122.83
2022-11-13T15:10:29.346Z,102117.73
2022-11-13T15:13:06.376Z,102118.66
2022-11-13T15:15:38.745Z,102120.05
2022-11-13T15:18:13.939Z,102116.37
2022-11-13T15:20:46.324Z,102116.06
2022-11-13T15:23:19.296Z,102115.25
2022-11-13T15:25:51.455Z,102118.37
2022-11-13T15:28:23.676Z,102118.30
2022-11-13T15:30:56.750Z,102122.33
2022-11-13T15:33:29.377Z,102124.42
2022-11-13T15:36:01.770Z,102119.74
2022-11-13T15:38:33.971Z,102121.54
2022-11-13T15:41:12.174Z,102119.89
2022-11-13T15:43:46.784Z,102116.23
2022-11-13T15:46:21.753Z,102119.27
2022-11-13T15:48:54.391Z,102115.63
2022-11-13T15:51:29.562Z,102118.41
2022-11-13T15:54:03.583Z,102120.16
2022-11-13T15:56:35.792Z,102119.59
2022-11-13T15:59:08.027Z,102121.35
2022-11-13T16:01:40.626Z,102123.50
2022-11-13T16:04:14.969Z,102125.67
2022-11-13T16:06:47.337Z,102122.77
2022-11-13T16:09:19.612Z,102124.45
2022-11-13T16:11:51.856Z,102128.05
2022-11-13T16:14:25.177Z,102130.23
2022-11-13T16:16:57.745Z,102126.21
2022-11-13T16:19:30.462Z,102129.07
2022-11-13T16:22:05.698Z,102129.67
2022-11-13T16:24:37.962Z,102129.70
2022-11-13T16:27:12.649Z,102132.85
2022-11-13T16:29:45.462Z,102133.66
2022-11-13T16:32:18.863Z,102131.45
2022-11-13T16:34:53.826Z,102129.74
2022-11-13T16:37:27.187Z,102130.56
2022-11-13T16:39:59.390Z,102131.04
2022-11-13T16:42:31.813Z,102133.27
2022-11-13T16:45:04.254Z,102133.09
2022-11-13T16:47:36.705Z,102133.48
2022-11-13T16:50:10.443Z,102141.77
2022-11-13T16:52:42.683Z,102136.05
2022-11-13T16:55:14.987Z,102135.45
2022-11-13T16:57:47.469Z,102134.24
2022-11-13T17:00:21.557Z,102131.25
2022-11-13T17:02:54.905Z,102130.92
2022-11-13T17:05:27.289Z,102134.52
2022-11-13T17:08:01.962Z,102138.77
2022-11-13T17:10:34.694Z,102135.71
2022-11-13T17:13:12.660Z,102137.23
2022-11-13T17:15:46.613Z,102139.23
2022-11-13T17:18:17.581Z,102140.31
2022-11-13T17:20:55.556Z,102141.61
2022-11-13T17:23:28.874Z,102145.20
2022-11-13T17:26:10.637Z,102145.88
2022-11-13T17:28:43.278Z,102143.80
2022-11-13T17:31:15.841Z,102138.84
2022-11-13T17:33:48.535Z,102138.27
2022-11-13T17:36:30.644Z,102138.24
2022-11-13T17:39:10.983Z,102137.48
2022-11-13T17:41:45.073Z,102136.13
2022-11-13T17:44:26.869Z,102136.19
2022-11-13T17:46:59.647Z,102131.59
2022-11-13T17:49:31.098Z,102132.77
2022-11-13T17:52:08.033Z,102130.46
2022-11-13T17:54:57.568Z,102129.42
2022-11-13T17:57:36.457Z,102132.27
2022-11-13T18:00:18.388Z,102129.48
2022-11-13T18:02:50.995Z,102132.08
2022-11-13T18:05:21.777Z,102127.48
2022-11-13T18:07:54.062Z,102124.90
2022-11-13T18:10:36.475Z,102123.11
2022-11-13T18:13:11.249Z,102124.50
2022-11-13T18:15:44.285Z,102124.50
2022-11-13T18:18:16.795Z,102121.77
2022-11-13T18:20:49.783Z,102125.34
2022-11-13T18:23:20.507Z,102123.73
2022-11-13T18:25:53.033Z,102118.52
2022-11-13T18:28:25.377Z,102122.23
2022-11-13T18:30:57.988Z,102122.04
2022-11-13T18:33:30.840Z,102121.95
2022-11-13T18:36:03.867Z,102120.98
2022-11-13T18:38:36.445Z,102117.05
2022-11-13T18:41:11.336Z,102113.75
2022-11-13T18:43:45.515Z,102115.35
2022-11-13T18:46:19.103Z,102113.66
2022-11-13T18:48:52.136Z,102116.30
2022-11-13T18:51:25.903Z,102117.13
2022-11-13T18:53:58.664Z,102118.64
2022-11-13T18:56:32.189Z,102113.71
2022-11-13T18:59:04.447Z,102114.73
2022-11-13T19:07:56.513Z,102118.95
2022-11-13T19:10:30.745Z,102120.73
2022-11-13T19:13:03.508Z,102120.69
2022-11-13T19:15:39.421Z,102120.64
2022-11-13T19:18:12.086Z,102121.72
2022-11-13T19:20:43.910Z,102123.43
2022-11-13T19:23:18.533Z,102121.39
2022-11-13T19:28:10.590Z,102117.74
2022-11-13T19:30:48.486Z,102114.90
2022-11-13T19:33:22.358Z,102112.23
2022-11-13T19:35:54.934Z,102109.05
2022-11-13T19:38:28.848Z,102106.63
2022-11-13T19:41:02.047Z,102103.65
2022-11-13T19:43:36.110Z,102102.33
2022-11-13T19:46:09.739Z,102102.70
2022-11-13T19:48:43.953Z,102101.30
2022-11-13T19:51:18.352Z,102100.84
2022-11-13T19:53:53.395Z,102099.00
2022-11-13T19:56:28.482Z,102101.59
2022-11-13T19:59:02.280Z,102098.79
2022-11-13T20:01:38.060Z,102096.83
2022-11-13T20:04:16.142Z,102099.92
2022-11-13T20:06:50.984Z,102096.30
2022-11-13T20:09:23.498Z,102095.41
2022-11-13T20:11:56.064Z,102092.59
2022-11-13T20:14:26.886Z,102089.41
2022-11-13T20:16:59.354Z,102088.17
2022-11-13T20:19:31.894Z,102086.48
2022-11-13T20:22:02.595Z,102084.45
2022-11-13T20:24:34.857Z,102085.76
2022-11-13T20:27:07.211Z,102082.41
2022-11-13T20:29:39.651Z,102083.31
2022-11-13T20:32:12.705Z,102084.89
2022-11-13T20:34:45.357Z,102088.42
2022-11-13T20:37:17.771Z,102090.60
2022-11-13T20:39:50.116Z,102089.88
2022-11-13T20:42:22.494Z,102088.59
2022-11-13T20:44:59.871Z,102087.64
2022-11-13T20:53:49.048Z,102080.98
2022-11-13T20:56:20.192Z,102082.67
2022-11-13T20:58:52.552Z,102081.55
2022-11-13T21:01:26.664Z,102085.04
2022-11-13T21:03:59.690Z,102086.75
2022-11-13T21:06:32.189Z,102083.90
2022-11-13T21:09:05.843Z,102083.89
2022-11-13T21:11:38.432Z,102089.27
2022-11-13T21:14:12.311Z,102089.02
2022-11-13T21:16:44.862Z,102088.14
2022-11-13T21:19:17.463Z,102090.84
2022-11-13T21:21:50.163Z,102094.98
2022-11-13T21:24:22.489Z,102099.52
2022-11-13T21:26:55.747Z,102094.89
2022-11-13T21:29:28.027Z,102090.85
2022-11-13T21:32:00.601Z,102094.02
2022-11-13T21:34:31.364Z,102092.29
2022-11-13T21:37:03.905Z,102091.57
2022-11-13T21:39:36.267Z,102089.41
2022-11-13T21:42:08.754Z,102084.27
2022-11-13T21:44:39.654Z,102081.67
2022-11-13T21:47:12.887Z,102083.42
2022-11-13T21:49:45.653Z,102083.61
2022-11-13T21:52:18.123Z,102084.03
2022-11-13T21:54:48.916Z,102086.35
2022-11-13T21:57:24.345Z,102088.45
2022-11-13T21:59:56.757Z,102087.23
2022-11-13T22:02:27.615Z,102090.17
2022-11-13T22:05:00.189Z,102085.55
2022-11-13T22:07:32.760Z,102080.46
2022-11-13T22:10:08.191Z,102077.76
2022-11-13T22:12:42.058Z,102076.78
2022-11-13T22:15:15.220Z,102076.27
2022-11-13T22:17:47.759Z,102075.77
2022-11-13T22:20:18.742Z,102071.85
2022-11-13T22:22:51.261Z,102069.75
2022-11-13T22:25:22.114Z,102067.77
2022-11-13T22:27:54.432Z,102066.25
2022-11-13T22:30:26.769Z,102065.42
2022-11-13T22:32:59.247Z,102061.13
2022-11-13T22:35:32.781Z,102057.79
2022-11-13T22:38:06.351Z,102055.65
2022-11-13T22:40:38.662Z,102053.69
2022-11-13T22:43:11.016Z,102051.52
2022-11-13T22:45:43.248Z,102045.36
2022-11-13T22:48:15.550Z,102042.42
2022-11-13T22:50:47.789Z,102035.34
2022-11-13T22:53:20.139Z,102030.79
2022-11-13T22:55:52.537Z,102033.80
2022-11-13T22:58:24.962Z,102033.83
2022-11-13T23:00:57.221Z,102033.55
2022-11-13T23:03:29.670Z,102029.77
2022-11-13T23:06:04.028Z,102033.14
2022-11-13T23:08:38.968Z,102035.51
2022-11-13T23:11:14.846Z,102035.92
2022-11-13T23:13:48.959Z,102035.64
2022-11-13T23:16:22.759Z,102037.59
2022-11-13T23:18:57.252Z,102036.95
2022-11-13T23:21:30.396Z,102038.96
2022-11-13T23:24:02.715Z,102043.14
2022-11-13T23:26:35.043Z,102040.66
2022-11-13T23:29:07.431Z,102042.95
2022-11-13T23:31:39.692Z,102045.67
2022-11-13T23:34:12.032Z,102045.25
2022-11-13T23:36:44.316Z,102044.63
2022-11-13T23:39:18.581Z,102047.07
2022-11-13T23:41:51.139Z,102043.85
2022-11-13T23:44:25.768Z,102043.87
2022-11-13T23:46:58.041Z,102049.69
2022-11-13T23:49:30.205Z,102050.48
2022-11-13T23:52:05.823Z,102051.75
2022-11-13T23:54:38.862Z,102054.63
2022-11-13T23:57:17.848Z,102052.71
2022-11-13T23:59:50.354Z,102053.55
